createdAt,value
2022-11-22T00:01:37.080Z,61.30
2022-11-22T00:04:04.515Z,56.00
2022-11-22T00:06:31.003Z,57.10
2022-11-22T00:08:57.513Z,58.00
2022-11-22T00:11:23.900Z,59.40
2022-11-22T00:13:50.311Z,61.50
2022-11-22T00:16:16.849Z,65.60
2022-11-22T00:18:43.258Z,68.10
2022-11-22T00:21:09.656Z,66.20
2022-11-22T00:23:36.165Z,62.80
2022-11-22T00:26:02.770Z,65.50
2022-11-22T00:28:29.324Z,65.50
2022-11-22T00:30:55.745Z,68.80
2022-11-22T00:33:22.207Z,65.10
2022-11-22T00:35:48.724Z,59.00
2022-11-22T00:38:15.175Z,63.60
2022-11-22T00:40:42.502Z,59.90
2022-11-22T00:43:08.876Z,65.70
2022-11-22T00:45:35.280Z,67.20
2022-11-22T00:48:01.730Z,64.10
2022-11-22T00:50:28.230Z,68.70
2022-11-22T00:52:54.641Z,59.90
2022-11-22T00:55:21.053Z,57.60
2022-11-22T00:57:47.543Z,66.80
2022-11-22T01:00:14.734Z,73.10
2022-11-22T01:02:41.149Z,64.90
2022-11-22T01:05:08.129Z,71.00
2022-11-22T01:07:34.787Z,65.60
2022-11-22T01:10:01.360Z,68.70
2022-11-22T01:12:27.751Z,65.70
2022-11-22T01:14:54.202Z,66.20
2022-11-22T01:17:20.741Z,70.30
2022-11-22T01:19:47.362Z,68.50
2022-11-22T01:22:13.870Z,79.10
2022-11-22T01:24:40.235Z,70.70
2022-11-22T01:27:06.636Z,71.30
2022-11-22T01:29:33.301Z,68.70
2022-11-22T01:31:59.746Z,72.60
2022-11-22T01:34:26.374Z,69.50
2022-11-22T01:36:52.777Z,70.10
2022-11-22T01:39:19.224Z,84.40
2022-11-22T01:41:45.799Z,77.10
2022-11-22T01:44:30.329Z,80.10
2022-11-22T01:47:07.225Z,80.20
2022-11-22T01:49:45.842Z,76.90
2022-11-22T01:52:24.462Z,71.70
2022-11-22T01:54:56.901Z,64.70
2022-11-22T01:57:29.290Z,64.40
2022-11-22T02:00:01.943Z,64.30
2022-11-22T02:02:28.567Z,72.70
2022-11-22T02:04:57.494Z,81.00
2022-11-22T02:07:31.222Z,67.70
2022-11-22T02:09:57.644Z,63.60
2022-11-22T02:12:28.041Z,59.20
2022-11-22T02:14:54.801Z,59.50
2022-11-22T02:17:21.428Z,62.20
2022-11-22T02:19:50.077Z,53.40
2022-11-22T02:22:37.506Z,58.20
2022-11-22T02:25:19.541Z,50.50
2022-11-22T02:27:46.002Z,54.60
2022-11-22T02:30:13.026Z,56.00
2022-11-22T02:32:39.550Z,60.80
2022-11-22T02:35:18.442Z,60.70
2022-11-22T02:37:45.052Z,56.40
2022-11-22T02:40:14.540Z,61.70
2022-11-22T02:42:44.835Z,59.10
2022-11-22T02:45:11.216Z,61.60
2022-11-22T02:47:37.603Z,57.70
2022-11-22T02:50:04.921Z,60.30
2022-11-22T02:52:31.599Z,56.40
2022-11-22T02:54:58.018Z,67.00
2022-11-22T02:57:24.572Z,67.70
2022-11-22T02:59:51.004Z,65.50
2022-11-22T03:02:17.488Z,63.40
2022-11-22T03:04:44.246Z,65.10
2022-11-22T03:07:10.712Z,65.60
2022-11-22T03:09:37.434Z,66.40
2022-11-22T03:12:03.986Z,62.00
2022-11-22T03:14:30.509Z,64.10
2022-11-22T03:16:56.962Z,63.20
2022-11-22T03:19:23.404Z,65.70
2022-11-22T03:21:50.601Z,67.50
2022-11-22T03:24:18.776Z,69.80
2022-11-22T03:26:49.527Z,67.50
2022-11-22T03:29:18.937Z,70.50
2022-11-22T03:31:45.377Z,58.50
2022-11-22T03:34:12.738Z,70.10
2022-11-22T03:36:39.271Z,71.90
2022-11-22T03:39:06.122Z,75.90
2022-11-22T03:41:32.541Z,69.20
2022-11-22T03:43:58.983Z,74.30
2022-11-22T03:46:25.494Z,72.90
2022-11-22T03:48:51.910Z,71.10
2022-11-22T03:51:18.320Z,67.30
2022-11-22T03:53:44.768Z,66.00
2022-11-22T03:56:11.230Z,72.30
2022-11-22T03:58:37.656Z,68.30
2022-11-22T04:01:04.163Z,69.10
2022-11-22T04:03:30.675Z,65.40
2022-11-22T04:05:57.160Z,72.80
2022-11-22T04:08:23.636Z,64.40
2022-11-22T04:10:51.171Z,67.00
2022-11-22T04:13:18.759Z,65.40
2022-11-22T04:15:45.185Z,69.00
2022-11-22T04:18:13.148Z,71.50
2022-11-22T04:20:59.661Z,71.70
2022-11-22T04:23:32.275Z,67.50
2022-11-22T04:26:00.226Z,70.20
2022-11-22T04:28:47.092Z,73.30
2022-11-22T04:31:31.709Z,68.40
2022-11-22T04:33:58.135Z,65.60
2022-11-22T04:36:24.582Z,62.00
2022-11-22T04:38:51.554Z,70.70
2022-11-22T04:41:18.041Z,65.80
2022-11-22T04:44:03.417Z,62.50
2022-11-22T04:46:30.804Z,60.60
2022-11-22T04:48:57.193Z,67.10
2022-11-22T04:51:41.954Z,57.00
2022-11-22T04:54:08.405Z,66.50
2022-11-22T04:56:34.940Z,54.60
2022-11-22T04:59:01.371Z,56.90
2022-11-22T05:01:27.859Z,62.60
2022-11-22T05:03:54.377Z,64.20
2022-11-22T05:06:20.764Z,69.10
2022-11-22T05:08:47.140Z,63.30
2022-11-22T05:11:13.838Z,63.30
2022-11-22T05:13:41.619Z,59.50
2022-11-22T05:16:12.639Z,64.30
2022-11-22T05:18:39.632Z,59.80
2022-11-22T05:21:08.943Z,53.60
2022-11-22T05:23:54.225Z,63.50
2022-11-22T05:26:29.713Z,64.60
2022-11-22T05:28:59.082Z,61.10
2022-11-22T05:31:26.825Z,64.60
2022-11-22T05:33:55.725Z,56.40
2022-11-22T05:36:28.000Z,64.20
2022-11-22T05:38:54.641Z,69.70
2022-11-22T05:41:21.105Z,75.20
2022-11-22T05:43:47.643Z,69.10
2022-11-22T05:46:17.259Z,68.60
2022-11-22T05:48:48.234Z,75.40
2022-11-22T05:51:18.312Z,69.60
2022-11-22T05:53:45.299Z,72.10
2022-11-22T05:56:31.151Z,66.10
2022-11-22T05:58:57.689Z,68.60
2022-11-22T06:01:24.450Z,71.90
2022-11-22T06:03:51.711Z,72.70
2022-11-22T06:06:18.487Z,86.80
2022-11-22T06:08:49.023Z,74.60
2022-11-22T06:11:25.462Z,82.50
2022-11-22T06:13:59.734Z,68.30
2022-11-22T06:16:26.667Z,73.00
2022-11-22T06:18:53.705Z,75.30
2022-11-22T06:21:23.076Z,73.90
2022-11-22T06:23:53.564Z,85.50
2022-11-22T06:26:25.586Z,79.50
2022-11-22T06:28:54.000Z,83.90
2022-11-22T06:31:26.132Z,78.20
2022-11-22T06:33:54.872Z,78.10
2022-11-22T06:36:25.290Z,79.10
2022-11-22T06:38:52.447Z,75.80
2022-11-22T06:41:23.699Z,84.30
2022-11-22T06:43:51.580Z,71.60
2022-11-22T06:46:21.251Z,70.00
2022-11-22T06:48:48.611Z,73.20
2022-11-22T06:51:18.870Z,76.60
2022-11-22T06:53:48.228Z,79.10
2022-11-22T06:56:23.485Z,75.20
2022-11-22T06:58:51.265Z,76.60
2022-11-22T07:01:21.275Z,78.50
2022-11-22T07:03:48.483Z,67.20
2022-11-22T07:06:18.041Z,58.20
2022-11-22T07:08:45.756Z,60.20
2022-11-22T07:11:20.550Z,60.60
2022-11-22T07:13:48.273Z,57.60
2022-11-22T07:16:18.286Z,55.70
2022-11-22T07:18:45.177Z,53.70
2022-11-22T07:21:15.840Z,57.10
2022-11-22T07:23:44.618Z,59.40
2022-11-22T07:26:12.704Z,54.40
2022-11-22T07:28:39.673Z,51.70
2022-11-22T07:31:08.968Z,55.50
2022-11-22T07:33:35.900Z,54.10
2022-11-22T07:36:07.487Z,53.10
2022-11-22T07:38:35.003Z,57.20
2022-11-22T07:41:02.493Z,57.20
2022-11-22T07:43:29.575Z,65.00
2022-11-22T07:46:05.825Z,54.90
2022-11-22T07:48:33.015Z,53.80
2022-11-22T07:51:05.266Z,55.10
2022-11-22T07:53:32.523Z,56.50
2022-11-22T07:56:04.049Z,49.40
2022-11-22T07:58:31.103Z,54.30
2022-11-22T08:00:57.670Z,60.70
2022-11-22T08:03:28.943Z,76.20
2022-11-22T08:06:05.314Z,61.00
2022-11-22T08:08:32.660Z,57.70
2022-11-22T08:10:59.627Z,61.20
2022-11-22T08:13:26.894Z,63.90
2022-11-22T08:15:54.839Z,60.50
2022-11-22T08:18:24.275Z,58.20
2022-11-22T08:20:50.872Z,58.70
2022-11-22T08:23:18.203Z,69.00
2022-11-22T08:25:44.740Z,62.90
2022-11-22T08:28:11.853Z,66.20
2022-11-22T08:30:38.576Z,76.40
2022-11-22T08:33:05.224Z,67.90
2022-11-22T08:35:32.713Z,83.20
2022-11-22T08:38:01.840Z,92.50
2022-11-22T08:40:28.477Z,91.20
2022-11-22T08:42:55.966Z,74.20
2022-11-22T08:45:22.817Z,79.90
2022-11-22T08:47:49.404Z,81.00
2022-11-22T08:50:17.572Z,78.80
2022-11-22T08:52:44.173Z,73.80
2022-11-22T08:55:10.814Z,88.40
2022-11-22T08:57:37.330Z,72.60
2022-11-22T09:00:05.886Z,78.90
2022-11-22T09:02:32.814Z,75.60
2022-11-22T09:04:59.628Z,80.30
2022-11-22T09:10:15.803Z,80.40
2022-11-22T09:12:45.989Z,72.40
2022-11-22T09:15:13.593Z,75.90
2022-11-22T09:17:39.981Z,79.20
2022-11-22T09:20:08.046Z,72.80
2022-11-22T09:22:34.934Z,78.90
2022-11-22T09:25:02.297Z,81.90
2022-11-22T09:27:29.660Z,85.20
2022-11-22T09:29:56.402Z,74.00
2022-11-22T09:32:22.841Z,82.20
2022-11-22T09:34:49.559Z,80.80
2022-11-22T09:37:18.164Z,92.10
2022-11-22T09:39:48.663Z,79.50
2022-11-22T09:42:54.654Z,88.90
2022-11-22T09:45:55.583Z,83.20
2022-11-22T09:48:57.658Z,88.20
2022-11-22T09:51:31.362Z,83.10
2022-11-22T09:54:11.509Z,83.50
2022-11-22T09:56:39.071Z,86.00
2022-11-22T09:59:16.717Z,83.40
2022-11-22T10:01:54.632Z,81.00
2022-11-22T10:04:31.530Z,81.00
2022-11-22T10:07:01.451Z,76.20
2022-11-22T10:09:50.274Z,83.30
2022-11-22T10:12:22.642Z,77.30
2022-11-22T10:14:56.609Z,98.00
2022-11-22T10:18:04.115Z,75.60
2022-11-22T10:20:35.342Z,64.70
2022-11-22T10:23:02.536Z,70.90
2022-11-22T10:25:39.902Z,71.40
2022-11-22T10:28:24.239Z,68.70
2022-11-22T10:31:14.771Z,69.80
2022-11-22T10:34:23.335Z,76.10
2022-11-22T10:37:09.013Z,61.90
2022-11-22T10:39:49.075Z,68.60
2022-11-22T10:42:31.516Z,77.20
2022-11-22T10:45:18.560Z,80.50
2022-11-22T10:48:03.534Z,81.40
2022-11-22T10:51:07.637Z,76.20
2022-11-22T10:54:03.349Z,71.80
2022-11-22T10:56:44.551Z,70.90
2022-11-22T10:59:47.226Z,71.50
2022-11-22T11:02:53.916Z,77.70
2022-11-22T11:05:27.939Z,80.20
2022-11-22T11:08:09.190Z,77.00
2022-11-22T11:10:42.990Z,77.60
2022-11-22T11:13:29.514Z,90.20
2022-11-22T11:15:59.603Z,82.70
2022-11-22T11:18:56.750Z,80.20
2022-11-22T11:21:25.169Z,91.50
2022-11-22T11:23:54.449Z,88.00
2022-11-22T11:26:28.729Z,97.90
2022-11-22T11:29:18.351Z,93.00
2022-11-22T11:32:06.096Z,84.20
2022-11-22T11:34:33.416Z,80.20
2022-11-22T11:37:01.516Z,89.40
2022-11-22T11:39:31.597Z,84.10
2022-11-22T11:41:59.213Z,79.30
2022-11-22T11:44:37.143Z,83.10
2022-11-22T11:47:04.422Z,79.30
2022-11-22T11:49:33.932Z,79.10
2022-11-22T11:52:08.036Z,78.70
2022-11-22T11:54:37.386Z,81.10
2022-11-22T11:57:07.176Z,86.20
2022-11-22T11:59:39.809Z,88.10
2022-11-22T12:04:53.743Z,78.90
2022-11-22T12:07:38.535Z,75.50
2022-11-22T12:10:51.829Z,75.90
2022-11-22T12:13:35.303Z,82.40
2022-11-22T12:16:26.274Z,79.60
2022-11-22T12:19:09.676Z,76.10
2022-11-22T12:21:54.195Z,76.70
2022-11-22T12:25:02.597Z,71.70
2022-11-22T12:27:26.686Z,73.70
2022-11-22T12:29:53.428Z,70.40
2022-11-22T12:32:28.953Z,75.50
2022-11-22T12:35:19.546Z,73.10
2022-11-22T12:38:03.165Z,76.00
2022-11-22T12:40:44.636Z,73.60
2022-11-22T12:43:37.093Z,72.20
2022-11-22T12:46:18.186Z,75.30
2022-11-22T12:49:02.613Z,75.00
2022-11-22T12:52:03.331Z,77.90
2022-11-22T12:54:37.195Z,79.50
2022-11-22T12:57:28.788Z,71.60
2022-11-22T13:00:14.255Z,74.30
2022-11-22T13:03:12.172Z,77.90
2022-11-22T13:05:49.225Z,75.00
2022-11-22T13:08:37.992Z,76.00
2022-11-22T13:11:31.861Z,86.70
2022-11-22T13:14:21.407Z,72.20
2022-11-22T13:16:50.718Z,86.60
2022-11-22T13:19:19.752Z,85.60
2022-11-22T13:21:52.436Z,85.30
2022-11-22T13:24:56.089Z,91.00
2022-11-22T13:27:40.489Z,94.50
2022-11-22T13:30:22.754Z,94.10
2022-11-22T13:32:53.305Z,116.80
2022-11-22T13:35:33.271Z,121.50
2022-11-22T13:38:14.769Z,104.00
2022-11-22T13:40:50.588Z,99.40
2022-11-22T13:43:22.247Z,87.40
2022-11-22T13:45:53.624Z,91.40
2022-11-22T13:48:38.791Z,92.40
2022-11-22T13:51:14.656Z,83.80
2022-11-22T13:53:46.378Z,87.30
2022-11-22T13:56:15.920Z,92.70
2022-11-22T13:59:03.924Z,98.90
2022-11-22T14:01:33.447Z,94.50
2022-11-22T14:04:15.365Z,89.70
2022-11-22T14:07:10.782Z,99.20
2022-11-22T14:10:04.842Z,102.50
2022-11-22T14:13:08.554Z,102.30
2022-11-22T14:15:50.555Z,111.10
2022-11-22T14:18:52.322Z,121.20
2022-11-22T14:21:43.972Z,107.30
2022-11-22T14:24:51.438Z,116.50
2022-11-22T14:27:43.087Z,112.00
2022-11-22T14:30:22.643Z,113.40
2022-11-22T14:33:03.149Z,104.00
2022-11-22T14:36:10.860Z,110.60
2022-11-22T14:38:42.905Z,124.40
2022-11-22T14:41:28.970Z,115.10
2022-11-22T14:44:24.529Z,126.50
2022-11-22T14:47:11.963Z,127.50
2022-11-22T14:49:46.253Z,107.20
2022-11-22T14:52:26.371Z,102.30
2022-11-22T14:55:05.443Z,100.90
2022-11-22T14:57:38.242Z,97.30
2022-11-22T15:00:23.275Z,98.70
2022-11-22T15:03:15.694Z,123.40
2022-11-22T15:09:18.784Z,138.50
2022-11-22T15:09:48.845Z,113.90
2022-11-22T15:12:54.081Z,107.00
2022-11-22T15:57:36.688Z,111.70
2022-11-22T16:00:20.340Z,100.10
2022-11-22T16:02:58.256Z,106.10
2022-11-22T16:06:09.336Z,93.00
2022-11-22T16:08:21.504Z,96.30
2022-11-22T16:10:50.775Z,103.70
2022-11-22T16:13:30.197Z,99.60
2022-11-22T16:16:18.398Z,102.40
2022-11-22T16:18:49.221Z,93.60
2022-11-22T16:21:17.026Z,92.40
2022-11-22T16:23:47.111Z,87.40
2022-11-22T16:26:29.123Z,88.10
2022-11-22T16:29:25.603Z,91.10
2022-11-22T16:32:10.927Z,88.20
2022-11-22T16:34:41.748Z,109.70
2022-11-22T16:37:34.496Z,101.00
2022-11-22T16:40:06.268Z,98.60
2022-11-22T16:42:37.657Z,96.40
2022-11-22T16:47:41.333Z,121.10
2022-11-22T16:50:13.812Z,112.40
2022-11-22T16:52:44.993Z,106.20
2022-11-22T16:55:19.270Z,112.80
2022-11-22T16:57:46.537Z,111.80
2022-11-22T17:00:13.889Z,105.40
2022-11-22T17:02:41.970Z,120.80
2022-11-22T17:05:15.798Z,121.50
2022-11-22T17:07:42.422Z,124.30
2022-11-22T17:10:12.978Z,123.50
2022-11-22T17:12:39.424Z,106.30
2022-11-22T17:15:10.670Z,98.80
2022-11-22T17:17:37.359Z,115.30
2022-11-22T17:20:07.503Z,111.80
2022-11-22T17:22:34.304Z,121.10
2022-11-22T17:25:00.893Z,128.80
2022-11-22T17:27:27.332Z,113.10
2022-11-22T17:29:54.076Z,125.50
2022-11-22T17:32:21.721Z,143.50
2022-11-22T17:34:49.908Z,127.00
2022-11-22T17:37:18.305Z,115.90
2022-11-22T17:39:50.750Z,106.40
2022-11-22T17:42:19.805Z,112.90
2022-11-22T17:44:46.493Z,109.70
2022-11-22T17:47:13.305Z,108.40
2022-11-22T17:49:42.757Z,111.10
2022-11-22T17:52:12.730Z,114.60
2022-11-22T17:54:42.006Z,112.50
2022-11-22T17:57:09.384Z,102.60
2022-11-22T17:59:44.531Z,105.40
2022-11-22T18:02:25.551Z,99.40
2022-11-22T18:04:54.233Z,103.10
2022-11-22T18:07:23.623Z,108.70
2022-11-22T18:10:05.868Z,104.70
2022-11-22T18:12:58.781Z,111.70
2022-11-22T18:15:33.209Z,119.00
2022-11-22T18:18:00.099Z,112.60
2022-11-22T18:20:26.732Z,123.40
2022-11-22T18:22:57.896Z,119.30
2022-11-22T18:25:24.406Z,112.10
2022-11-22T18:27:50.838Z,105.60
2022-11-22T18:30:17.652Z,113.20
2022-11-22T18:32:44.208Z,117.00
2022-11-22T18:35:10.705Z,122.80
2022-11-22T18:37:37.192Z,108.80
2022-11-22T18:40:04.768Z,115.60
2022-11-22T18:42:31.719Z,112.90
2022-11-22T18:44:58.412Z,109.80
2022-11-22T18:47:25.029Z,108.10
2022-11-22T18:49:51.576Z,114.60
2022-11-22T18:52:19.185Z,111.10
2022-11-22T18:54:45.985Z,112.70
2022-11-22T18:57:13.729Z,120.60
2022-11-22T18:59:40.632Z,129.00
2022-11-22T19:02:07.157Z,119.70
2022-11-22T19:04:33.876Z,124.00
2022-11-22T19:07:00.695Z,114.70
2022-11-22T19:09:27.107Z,110.80
2022-11-22T19:11:58.295Z,106.20
2022-11-22T19:14:28.166Z,112.90
2022-11-22T19:16:55.126Z,104.70
2022-11-22T19:19:23.672Z,104.10
2022-11-22T19:21:50.236Z,103.60
2022-11-22T19:24:16.953Z,104.00
2022-11-22T19:26:43.684Z,107.40
2022-11-22T19:29:10.271Z,110.70
2022-11-22T19:31:37.187Z,108.90
2022-11-22T19:34:03.933Z,106.70
2022-11-22T19:36:33.715Z,108.10
2022-11-22T19:39:08.785Z,108.40
2022-11-22T19:41:35.865Z,110.70
2022-11-22T19:44:11.745Z,106.30
2022-11-22T19:46:40.798Z,111.60
2022-11-22T19:49:08.666Z,129.10
2022-11-22T19:51:36.331Z,125.70
2022-11-22T19:54:03.581Z,120.70
2022-11-22T19:56:33.785Z,118.10
2022-11-22T19:59:03.705Z,104.70
2022-11-22T20:01:35.607Z,108.80
2022-11-22T20:04:05.483Z,110.80
2022-11-22T20:06:34.361Z,108.20
2022-11-22T20:09:10.383Z,113.50
2022-11-22T20:11:42.860Z,109.90
2022-11-22T20:14:10.013Z,103.70
2022-11-22T20:16:40.576Z,113.00
2022-11-22T20:19:08.988Z,110.10
2022-11-22T20:21:37.305Z,108.80
2022-11-22T20:24:05.330Z,102.20
2022-11-22T20:26:33.327Z,95.80
2022-11-22T20:29:07.263Z,102.00
2022-11-22T20:31:36.580Z,105.10
2022-11-22T20:34:04.485Z,97.40
2022-11-22T20:36:34.426Z,101.10
2022-11-22T20:39:06.771Z,102.80
2022-11-22T20:41:38.420Z,112.80
2022-11-22T20:44:05.823Z,92.30
2022-11-22T20:46:36.311Z,90.70
2022-11-22T20:49:03.142Z,102.00
2022-11-22T20:51:30.019Z,114.20
2022-11-22T20:53:57.428Z,104.30
2022-11-22T20:56:26.168Z,106.00
2022-11-22T20:58:53.436Z,89.70
2022-11-22T21:01:23.965Z,102.10
2022-11-22T21:03:52.466Z,108.20
2022-11-22T21:06:21.188Z,115.90
2022-11-22T21:08:48.772Z,96.00
2022-11-22T21:11:26.893Z,108.70
2022-11-22T21:13:57.703Z,105.10
2022-11-22T21:16:29.185Z,103.80
2022-11-22T21:19:01.476Z,103.80
2022-11-22T21:21:29.672Z,102.30
2022-11-22T21:23:59.457Z,99.20
2022-11-22T21:26:26.716Z,105.40
2022-11-22T21:28:55.107Z,99.00
2022-11-22T21:31:22.826Z,109.20
2022-11-22T21:33:53.388Z,115.90
2022-11-22T21:36:27.634Z,91.30
2022-11-22T21:38:54.335Z,90.30
2022-11-22T21:41:39.322Z,98.70
2022-11-22T21:44:12.288Z,94.50
2022-11-22T21:46:40.491Z,94.70
2022-11-22T21:49:07.017Z,102.20
2022-11-22T21:51:33.613Z,107.60
2022-11-22T21:54:01.446Z,97.10
2022-11-22T21:56:28.795Z,98.70
2022-11-22T21:58:55.776Z,97.70
2022-11-22T22:01:23.162Z,96.60
2022-11-22T22:03:49.852Z,101.80
2022-11-22T22:06:16.584Z,100.20
2022-11-22T22:08:42.996Z,96.50
2022-11-22T22:11:09.685Z,83.60
2022-11-22T22:13:36.174Z,91.40
2022-11-22T22:16:05.991Z,95.50
2022-11-22T22:18:37.762Z,100.40
2022-11-22T22:21:08.987Z,100.20
2022-11-22T22:23:38.738Z,84.70
2022-11-22T22:26:15.510Z,92.80
2022-11-22T22:28:43.573Z,84.40
2022-11-22T22:31:21.725Z,90.50
2022-11-22T22:33:56.544Z,94.90
2022-11-22T22:36:25.345Z,90.20
2022-11-22T22:38:53.183Z,91.20
2022-11-22T22:41:19.770Z,89.30
2022-11-22T22:43:48.399Z,86.50
2022-11-22T22:46:21.664Z,89.70
2022-11-22T22:48:49.163Z,86.50
2022-11-22T22:51:30.667Z,83.70
2022-11-22T22:56:27.585Z,94.60
2022-11-22T22:58:55.450Z,89.20
2022-11-22T23:01:25.209Z,87.90
2022-11-22T23:03:54.245Z,89.00
2022-11-22T23:06:21.811Z,95.40
2022-11-22T23:08:50.045Z,100.50
2022-11-22T23:11:22.256Z,88.10
2022-11-22T23:13:48.685Z,86.20
2022-11-22T23:16:15.120Z,94.20
2022-11-22T23:18:43.961Z,98.40
2022-11-22T23:21:13.606Z,100.70
2022-11-22T23:23:40.163Z,86.60
2022-11-22T23:26:10.447Z,94.10
2022-11-22T23:28:37.444Z,90.60
2022-11-22T23:31:09.479Z,99.10
2022-11-22T23:33:36.403Z,90.80
2022-11-22T23:36:09.303Z,90.40
2022-11-22T23:38:36.234Z,84.30
2022-11-22T23:41:03.157Z,92.40
2022-11-22T23:43:30.244Z,99.70
2022-11-22T23:45:58.100Z,85.90
2022-11-22T23:48:26.135Z,98.00
2022-11-22T23:50:52.635Z,99.20
2022-11-22T23:53:19.563Z,100.50
2022-11-22T23:55:45.956Z,97.60
2022-11-22T23:58:12.367Z,97.30
